Observations

Aujourd'hui

  • Température

    Max: 29.1° à 17:21:12

    Moy: 18.7°

    Min: 10.1° à 06:33:43

 

  • Humidité

    Max: 93% à 08:00:17

    Min: 46% à 17:25:36

 

  • Précipitation accumulée

    Aujourd'hui: 0 mm

    Ce mois-ci: 0 mm

    Cette année: 73 mm



HeureTemperaturePoint de roséeHumiditéDir. VentVitesseRafalesPressionPrecip.Precip. Accum.
17:24 28.7°C 16°C 46% 4.3 km/h 6.1 km/h 1017 hPa 0 mm/hr 0 mm
17:19 28.9°C 16.1°C 46% 5 km/h 6.1 km/h 1017 hPa 0 mm/hr 0 mm
17:14 28.9°C 16.5°C 47% 3.2 km/h 5.5 km/h 1017 hPa 0 mm/hr 0 mm
17:09 28.8°C 16.4°C 47% 5 km/h 5.5 km/h 1017 hPa 0 mm/hr 0 mm
17:04 28.5°C 16.1°C 47% 5.5 km/h 5.8 km/h 1017 hPa 0 mm/hr 0 mm
16:59 28.8°C 16.7°C 48% 3.2 km/h 5.8 km/h 1017 hPa 0 mm/hr 0 mm
16:54 28.9°C 16.8°C 48% 4 km/h 5 km/h 1017 hPa 0 mm/hr 0 mm
16:49 28.6°C 16.6°C 48% 3.2 km/h 5.8 km/h 1017 hPa 0 mm/hr 0 mm
16:44 28.3°C 15.9°C 47% 5 km/h 5.8 km/h 1017 hPa 0 mm/hr 0 mm
16:39 28°C 15.7°C 47% 5.8 km/h 5.8 km/h 1017 hPa 0 mm/hr 0 mm
16:34 28.5°C 16.5°C 48% 5 km/h 5.8 km/h 1017 hPa 0 mm/hr 0 mm
16:29 28.3°C 15.9°C 47% 4.7 km/h 6.1 km/h 1017 hPa 0 mm/hr 0 mm
16:24 28.2°C 16.2°C 48% 6.1 km/h 6.1 km/h 1017 hPa 0 mm/hr 0 mm
16:19 28°C 16°C 48% 2.6 km/h 5.8 km/h 1017 hPa 0 mm/hr 0 mm
16:14 28.5°C 16.5°C 48% 4.3 km/h 5.8 km/h 1017 hPa 0 mm/hr 0 mm
16:09 28.3°C 16.9°C 50% 3.2 km/h 6.9 km/h 1017 hPa 0 mm/hr 0 mm
16:04 28.2°C 16.6°C 49% 4 km/h 6.9 km/h 1017 hPa 0 mm/hr 0 mm
15:59 28.2°C 16.6°C 49% 6.9 km/h 6.9 km/h 1017 hPa 0 mm/hr 0 mm
15:54 28°C 16.7°C 50% 2.9 km/h 6.1 km/h 1017 hPa 0 mm/hr 0 mm
15:49 28.2°C 16.6°C 49% 2.9 km/h 6.4 km/h 1017 hPa 0 mm/hr 0 mm
15:44 28°C 17°C 51% 4 km/h 6.4 km/h 1017 hPa 0 mm/hr 0 mm
15:39 27.8°C 16.8°C 51% 6.4 km/h 6.4 km/h 1018 hPa 0 mm/hr 0 mm
15:34 27.7°C 17.1°C 52% 2.9 km/h 4.7 km/h 1018 hPa 0 mm/hr 0 mm
15:29 27.7°C 17.1°C 52% 2.6 km/h 5.8 km/h 1018 hPa 0 mm/hr 0 mm
15:24 27.7°C 17.1°C 52% 2.6 km/h 5.8 km/h 1018 hPa 0 mm/hr 0 mm
15:19 27.4°C 16.7°C 52% 4 km/h 6.9 km/h 1018 hPa 0 mm/hr 0 mm
15:14 27.2°C 16.3°C 51% 3.2 km/h 6.9 km/h 1018 hPa 0 mm/hr 0 mm
15:09 27.4°C 16.7°C 52% 4.7 km/h 6.9 km/h 1018 hPa 0 mm/hr 0 mm
15:04 27.2°C 16.6°C 52% 6.9 km/h 6.9 km/h 1018 hPa 0 mm/hr 0 mm
14:59 27.1°C 17.1°C 54% 0 km/h 6.9 km/h 1018 hPa 0 mm/hr 0 mm
14:54 26.6°C 16.6°C 54% 0 km/h 6.9 km/h 1018 hPa 0 mm/hr 0 mm
14:49 26.9°C 16.9°C 54% 6.1 km/h 6.1 km/h 1018 hPa 0 mm/hr 0 mm
14:44 26.8°C 17.1°C 55% 2.6 km/h 6.1 km/h 1018 hPa 0 mm/hr 0 mm
14:39 26.8°C 17.4°C 56% 4.7 km/h 6.1 km/h 1018 hPa 0 mm/hr 0 mm
14:34 26.4°C 16.7°C 55% 2.9 km/h 4.7 km/h 1018 hPa 0 mm/hr 0 mm
14:29 26.8°C 17.4°C 56% 3.2 km/h 4.7 km/h 1018 hPa 0 mm/hr 0 mm
14:24 26.8°C 17.4°C 56% 2.9 km/h 6.1 km/h 1018 hPa 0 mm/hr 0 mm
14:19 26.8°C 17.4°C 56% 2.1 km/h 6.1 km/h 1018 hPa 0 mm/hr 0 mm
14:14 26.9°C 17.5°C 56% 6.1 km/h 6.1 km/h 1018 hPa 0 mm/hr 0 mm
14:09 26.7°C 17.6°C 57% 5.8 km/h 5.8 km/h 1019 hPa 0 mm/hr 0 mm
14:04 26.5°C 17.4°C 57% 4.3 km/h 5.8 km/h 1019 hPa 0 mm/hr 0 mm
13:59 26.2°C 17.1°C 57% 4.3 km/h 5.8 km/h 1019 hPa 0 mm/hr 0 mm
13:54 26.3°C 17.8°C 59% 4.3 km/h 6.1 km/h 1019 hPa 0 mm/hr 0 mm
13:49 25.9°C 17.4°C 59% 0 km/h 6.1 km/h 1019 hPa 0 mm/hr 0 mm
13:44 25.9°C 17.4°C 59% 3.2 km/h 6.1 km/h 1019 hPa 0 mm/hr 0 mm
13:39 26.1°C 17.9°C 60% 4.3 km/h 6.1 km/h 1019 hPa 0 mm/hr 0 mm
13:34 25.8°C 17.3°C 59% 2.9 km/h 7.2 km/h 1019 hPa 0 mm/hr 0 mm
13:29 25.7°C 17.2°C 59% 2.1 km/h 7.2 km/h 1019 hPa 0 mm/hr 0 mm
13:24 25.6°C 17.1°C 59% 7.2 km/h 7.2 km/h 1021 hPa 0 mm/hr 0 mm
13:19 25.6°C 17.1°C 59% 5 km/h 6.9 km/h 1021 hPa 0 mm/hr 0 mm
13:14 25.7°C 17.5°C 60% 2.6 km/h 6.4 km/h 1021 hPa 0 mm/hr 0 mm
13:09 25.6°C 17.7°C 61% 5.8 km/h 6.4 km/h 1021 hPa 0 mm/hr 0 mm
13:04 25.2°C 17.3°C 61% 4 km/h 5.8 km/h 1021 hPa 0 mm/hr 0 mm
12:59 25.3°C 17.6°C 62% 2.1 km/h 6.1 km/h 1021 hPa 0 mm/hr 0 mm
12:54 25.4°C 17.7°C 62% 4 km/h 6.1 km/h 1021 hPa 0 mm/hr 0 mm
12:49 25.2°C 17.8°C 63% 5.5 km/h 5.5 km/h 1021 hPa 0 mm/hr 0 mm
12:44 24.9°C 17.5°C 63% 4 km/h 6.1 km/h 1021 hPa 0 mm/hr 0 mm
12:39 24.8°C 17.4°C 63% 5.5 km/h 6.1 km/h 1021 hPa 0 mm/hr 0 mm
12:34 24.9°C 17.7°C 64% 3.2 km/h 6.1 km/h 1021 hPa 0 mm/hr 0 mm
12:29 24.6°C 17.5°C 64% 3.2 km/h 6.1 km/h 1021 hPa 0 mm/hr 0 mm
12:24 24.7°C 17.8°C 65% 4.3 km/h 4.3 km/h 1021 hPa 0 mm/hr 0 mm
12:19 24.6°C 17.7°C 65% 0 km/h 5 km/h 1021 hPa 0 mm/hr 0 mm
12:14 24.7°C 17.8°C 65% 1.8 km/h 5.5 km/h 1021 hPa 0 mm/hr 0 mm
12:09 24.4°C 17.5°C 65% 2.9 km/h 5.5 km/h 1019 hPa 0 mm/hr 0 mm
12:04 24.4°C 17.7°C 66% 2.9 km/h 4.3 km/h 1019 hPa 0 mm/hr 0 mm
11:59 24°C 17.4°C 66% 1.8 km/h 6.1 km/h 1019 hPa 0 mm/hr 0 mm
11:54 23.9°C 17.3°C 66% 4.3 km/h 6.1 km/h 1019 hPa 0 mm/hr 0 mm
11:49 23.8°C 17.4°C 67% 0 km/h 5.5 km/h 1019 hPa 0 mm/hr 0 mm
11:44 23.6°C 17.2°C 67% 4.7 km/h 5.5 km/h 1019 hPa 0 mm/hr 0 mm
11:39 23.7°C 17.3°C 67% 4.7 km/h 5.5 km/h 1019 hPa 0 mm/hr 0 mm
11:34 23.5°C 17.4°C 68% 5.5 km/h 6.4 km/h 1019 hPa 0 mm/hr 0 mm
11:29 23.3°C 16.9°C 67% 4.3 km/h 6.4 km/h 1019 hPa 0 mm/hr 0 mm
11:24 23.4°C 17.3°C 68% 4.3 km/h 6.4 km/h 1019 hPa 0 mm/hr 0 mm
11:19 23.2°C 17.1°C 68% 2.9 km/h 6.4 km/h 1019 hPa 0 mm/hr 0 mm
11:14 23.1°C 17.2°C 69% 2.6 km/h 6.1 km/h 1019 hPa 0 mm/hr 0 mm
11:09 23.1°C 17.2°C 69% 4 km/h 6.1 km/h 1019 hPa 0 mm/hr 0 mm
11:04 22.8°C 17.1°C 70% 4 km/h 6.1 km/h 1019 hPa 0 mm/hr 0 mm
10:59 22.9°C 17.5°C 71% 2.9 km/h 6.1 km/h 1019 hPa 0 mm/hr 0 mm
10:54 22.9°C 17.5°C 71% 0 km/h 6.1 km/h 1019 hPa 0 mm/hr 0 mm
10:49 22.6°C 17.2°C 71% 2.9 km/h 6.1 km/h 1019 hPa 0 mm/hr 0 mm
10:44 22.5°C 17.3°C 72% 0 km/h 5.8 km/h 1019 hPa 0 mm/hr 0 mm
10:39 22.3°C 17.3°C 73% 0 km/h 5.8 km/h 1019 hPa 0 mm/hr 0 mm
10:34 21.9°C 16.9°C 73% 0 km/h 6.9 km/h 1019 hPa 0 mm/hr 0 mm
10:29 21.7°C 17°C 74% 2.9 km/h 6.9 km/h 1019 hPa 0 mm/hr 0 mm
10:24 21.5°C 16.8°C 74% 6.9 km/h 6.9 km/h 1019 hPa 0 mm/hr 0 mm
10:19 21.5°C 17°C 75% 5.8 km/h 5.8 km/h 1019 hPa 0 mm/hr 0 mm
10:14 21.1°C 16.8°C 76% 3.2 km/h 4.7 km/h 1019 hPa 0 mm/hr 0 mm
10:09 21°C 16.9°C 77% 3.2 km/h 5 km/h 1019 hPa 0 mm/hr 0 mm
10:04 20.6°C 16.7°C 78% 0 km/h 5 km/h 1019 hPa 0 mm/hr 0 mm
09:59 20.6°C 16.7°C 78% 2.9 km/h 4.7 km/h 1019 hPa 0 mm/hr 0 mm
09:54 20.4°C 16.7°C 79% 2.9 km/h 4.7 km/h 1019 hPa 0 mm/hr 0 mm
09:49 20.3°C 16.6°C 79% 0 km/h 4 km/h 1019 hPa 0 mm/hr 0 mm
09:44 20.2°C 16.5°C 79% 3.2 km/h 6.1 km/h 1019 hPa 0 mm/hr 0 mm
09:39 20.1°C 16.6°C 80% 0 km/h 6.1 km/h 1019 hPa 0 mm/hr 0 mm
09:34 20°C 16.7°C 81% 0 km/h 4.3 km/h 1019 hPa 0 mm/hr 0 mm
09:29 20°C 16.7°C 81% 4.3 km/h 4.3 km/h 1019 hPa 0 mm/hr 0 mm
09:24 19.7°C 16.6°C 82% 3.2 km/h 4 km/h 1019 hPa 0 mm/hr 0 mm
09:19 19.6°C 16.5°C 82% 4 km/h 4 km/h 1019 hPa 0 mm/hr 0 mm
09:14 19.5°C 16.4°C 82% 2.6 km/h 5 km/h 1019 hPa 0 mm/hr 0 mm
09:09 19°C 16.1°C 83% 2.6 km/h 5 km/h 1019 hPa 0 mm/hr 0 mm
09:04 18.8°C 16°C 84% 3.2 km/h 4.3 km/h 1019 hPa 0 mm/hr 0 mm
08:59 18.6°C 16°C 85% 2.9 km/h 4.3 km/h 1019 hPa 0 mm/hr 0 mm
08:54 18.3°C 15.9°C 86% 2.6 km/h 4.3 km/h 1019 hPa 0 mm/hr 0 mm
08:49 18°C 15.6°C 86% 0 km/h 4.3 km/h 1019 hPa 0 mm/hr 0 mm
08:44 17.8°C 15.6°C 87% 2.9 km/h 4 km/h 1019 hPa 0 mm/hr 0 mm
08:39 17.5°C 15.5°C 88% 2.1 km/h 3.2 km/h 1019 hPa 0 mm/hr 0 mm
08:34 17.3°C 15.3°C 88% 2.6 km/h 2.6 km/h 1019 hPa 0 mm/hr 0 mm
08:29 17°C 15.2°C 89% 0 km/h 0 km/h 1019 hPa 0 mm/hr 0 mm
08:24 16.8°C 15.1°C 90% 0 km/h 0 km/h 1019 hPa 0 mm/hr 0 mm
08:19 16.4°C 14.7°C 90% 0 km/h 0 km/h 1019 hPa 0 mm/hr 0 mm
08:14 16.3°C 14.8°C 91% 0 km/h 3.2 km/h 1019 hPa 0 mm/hr 0 mm
08:09 16°C 14.5°C 91% 0 km/h 3.2 km/h 1019 hPa 0 mm/hr 0 mm
08:04 15.8°C 14.5°C 92% 3.2 km/h 3.2 km/h 1019 hPa 0 mm/hr 0 mm
07:59 15.4°C 14.2°C 93% 0 km/h 0 km/h 1019 hPa 0 mm/hr 0 mm
07:54 15°C 13.9°C 93% 0 km/h 0 km/h 1019 hPa 0 mm/hr 0 mm
07:49 14.5°C 13.4°C 93% 0 km/h 0 km/h 1019 hPa 0 mm/hr 0 mm
07:44 14°C 12.9°C 93% 0 km/h 0 km/h 1019 hPa 0 mm/hr 0 mm
07:39 13.7°C 12.6°C 93% 0 km/h 0 km/h 1019 hPa 0 mm/hr 0 mm
07:34 13.4°C 12.3°C 93% 0 km/h 0 km/h 1019 hPa 0 mm/hr 0 mm
07:29 12.8°C 11.7°C 93% 0 km/h 0 km/h 1019 hPa 0 mm/hr 0 mm
07:24 12.3°C 11°C 92% 0 km/h 0 km/h 1019 hPa 0 mm/hr 0 mm
07:19 11.7°C 10.4°C 92% 0 km/h 0 km/h 1019 hPa 0 mm/hr 0 mm
07:14 11°C 9.6°C 91% 0 km/h 0 km/h 1019 hPa 0 mm/hr 0 mm
07:09 10.8°C 9.3°C 91% 0 km/h 0 km/h 1019 hPa 0 mm/hr 0 mm
07:04 10.5°C 9.1°C 91% 0 km/h 0 km/h 1019 hPa 0 mm/hr 0 mm
06:59 10.4°C 9°C 91% 0 km/h 0 km/h 1019 hPa 0 mm/hr 0 mm
06:54 10.3°C 8.9°C 91% 0 km/h 0 km/h 1019 hPa 0 mm/hr 0 mm
06:49 10.3°C 8.9°C 91% 0 km/h 0 km/h 1019 hPa 0 mm/hr 0 mm
06:44 10.2°C 8.8°C 91% 0 km/h 0 km/h 1019 hPa 0 mm/hr 0 mm
06:39 10.2°C 8.6°C 90% 0 km/h 0 km/h 1019 hPa 0 mm/hr 0 mm
06:34 10.2°C 8.6°C 90% 0 km/h 0 km/h 1019 hPa 0 mm/hr 0 mm
06:29 10.1°C 8.5°C 90% 0 km/h 0 km/h 1019 hPa 0 mm/hr 0 mm
06:24 10.1°C 8.5°C 90% 0 km/h 0 km/h 1019 hPa 0 mm/hr 0 mm
06:19 10.2°C 8.6°C 90% 0 km/h 0 km/h 1019 hPa 0 mm/hr 0 mm
06:14 10.2°C 8.6°C 90% 0 km/h 0 km/h 1019 hPa 0 mm/hr 0 mm
06:09 10.2°C 8.6°C 90% 0 km/h 0 km/h 1019 hPa 0 mm/hr 0 mm
06:04 10.3°C 8.5°C 89% 0 km/h 0 km/h 1019 hPa 0 mm/hr 0 mm
05:59 10.3°C 8.5°C 89% 0 km/h 0 km/h 1019 hPa 0 mm/hr 0 mm
05:54 10.3°C 8.5°C 89% 0 km/h 0 km/h 1019 hPa 0 mm/hr 0 mm
05:49 10.4°C 8.6°C 89% 0 km/h 0 km/h 1018 hPa 0 mm/hr 0 mm
05:44 10.4°C 8.6°C 89% 0 km/h 0 km/h 1018 hPa 0 mm/hr 0 mm
05:39 10.4°C 8.6°C 89% 0 km/h 0 km/h 1018 hPa 0 mm/hr 0 mm
05:34 10.5°C 8.7°C 89% 0 km/h 0 km/h 1018 hPa 0 mm/hr 0 mm
05:29 10.5°C 8.6°C 88% 0 km/h 0 km/h 1018 hPa 0 mm/hr 0 mm
05:24 10.5°C 8.6°C 88% 0 km/h 0 km/h 1018 hPa 0 mm/hr 0 mm
05:19 10.6°C 8.7°C 88% 0 km/h 0 km/h 1018 hPa 0 mm/hr 0 mm
05:14 10.6°C 8.7°C 88% 0 km/h 0 km/h 1018 hPa 0 mm/hr 0 mm
05:09 10.7°C 8.6°C 87% 0 km/h 0 km/h 1018 hPa 0 mm/hr 0 mm
05:04 10.7°C 8.6°C 87% 0 km/h 0 km/h 1018 hPa 0 mm/hr 0 mm
04:59 10.7°C 8.5°C 86% 0 km/h 0 km/h 1018 hPa 0 mm/hr 0 mm
04:54 10.7°C 8.5°C 86% 0 km/h 0 km/h 1018 hPa 0 mm/hr 0 mm
04:49 10.7°C 8.5°C 86% 0 km/h 0 km/h 1019 hPa 0 mm/hr 0 mm
04:44 10.7°C 8.5°C 86% 0 km/h 0 km/h 1019 hPa 0 mm/hr 0 mm
04:39 10.8°C 8.5°C 86% 0 km/h 0 km/h 1019 hPa 0 mm/hr 0 mm
04:34 10.8°C 8.5°C 86% 0 km/h 0 km/h 1019 hPa 0 mm/hr 0 mm
04:29 10.9°C 8.6°C 86% 0 km/h 0 km/h 1019 hPa 0 mm/hr 0 mm
04:24 10.9°C 8.5°C 85% 0 km/h 0 km/h 1019 hPa 0 mm/hr 0 mm
04:19 11°C 8.6°C 85% 0 km/h 0 km/h 1019 hPa 0 mm/hr 0 mm
04:14 11°C 8.6°C 85% 0 km/h 0 km/h 1019 hPa 0 mm/hr 0 mm
04:09 11.1°C 8.7°C 85% 0 km/h 0 km/h 1019 hPa 0 mm/hr 0 mm
04:04 11.1°C 8.7°C 85% 0 km/h 0 km/h 1019 hPa 0 mm/hr 0 mm
03:59 11.1°C 8.5°C 84% 0 km/h 0 km/h 1019 hPa 0 mm/hr 0 mm
03:54 11.2°C 8.6°C 84% 0 km/h 0 km/h 1019 hPa 0 mm/hr 0 mm
03:49 11.2°C 8.6°C 84% 0 km/h 0 km/h 1019 hPa 0 mm/hr 0 mm
03:44 11.3°C 8.7°C 84% 0 km/h 0 km/h 1019 hPa 0 mm/hr 0 mm
03:39 11.3°C 8.5°C 83% 0 km/h 0 km/h 1019 hPa 0 mm/hr 0 mm
03:34 11.4°C 8.6°C 83% 0 km/h 0 km/h 1019 hPa 0 mm/hr 0 mm
03:29 11.4°C 8.6°C 83% 0 km/h 0 km/h 1019 hPa 0 mm/hr 0 mm
03:24 11.5°C 8.7°C 83% 0 km/h 0 km/h 1019 hPa 0 mm/hr 0 mm
03:19 11.6°C 8.8°C 83% 0 km/h 0 km/h 1019 hPa 0 mm/hr 0 mm
03:14 11.7°C 8.9°C 83% 0 km/h 0 km/h 1019 hPa 0 mm/hr 0 mm
03:09 11.7°C 8.9°C 83% 0 km/h 0 km/h 1019 hPa 0 mm/hr 0 mm
03:04 11.7°C 8.8°C 82% 0 km/h 0 km/h 1019 hPa 0 mm/hr 0 mm
02:59 11.8°C 8.8°C 82% 0 km/h 0 km/h 1019 hPa 0 mm/hr 0 mm
02:54 11.8°C 8.8°C 82% 0 km/h 0 km/h 1019 hPa 0 mm/hr 0 mm
02:49 11.9°C 8.9°C 82% 0 km/h 0 km/h 1019 hPa 0 mm/hr 0 mm
02:44 12°C 8.9°C 81% 0 km/h 0 km/h 1019 hPa 0 mm/hr 0 mm
02:39 12.1°C 9°C 81% 0 km/h 0 km/h 1019 hPa 0 mm/hr 0 mm
02:34 12.1°C 9°C 81% 0 km/h 0 km/h 1018 hPa 0 mm/hr 0 mm
02:29 12.2°C 9.1°C 81% 0 km/h 0 km/h 1018 hPa 0 mm/hr 0 mm
02:24 12.3°C 9.1°C 81% 0 km/h 0 km/h 1018 hPa 0 mm/hr 0 mm
02:19 12.4°C 9.1°C 80% 0 km/h 0 km/h 1018 hPa 0 mm/hr 0 mm
02:14 12.5°C 9.2°C 80% 0 km/h 0 km/h 1018 hPa 0 mm/hr 0 mm
02:09 12.5°C 9.2°C 80% 0 km/h 0 km/h 1018 hPa 0 mm/hr 0 mm
02:04 12.6°C 9.3°C 80% 0 km/h 0 km/h 1018 hPa 0 mm/hr 0 mm
01:59 12.7°C 9.2°C 79% 0 km/h 0 km/h 1018 hPa 0 mm/hr 0 mm
01:54 12.8°C 9.3°C 79% 0 km/h 0 km/h 1018 hPa 0 mm/hr 0 mm
01:49 12.9°C 9.4°C 79% 0 km/h 0 km/h 1018 hPa 0 mm/hr 0 mm
01:44 13°C 9.3°C 78% 0 km/h 0 km/h 1018 hPa 0 mm/hr 0 mm
01:39 13.1°C 9.4°C 78% 0 km/h 0 km/h 1018 hPa 0 mm/hr 0 mm
01:34 13.3°C 9.4°C 77% 0 km/h 0 km/h 1018 hPa 0 mm/hr 0 mm
01:29 13.4°C 9.5°C 77% 0 km/h 0 km/h 1018 hPa 0 mm/hr 0 mm
01:24 13.5°C 9.6°C 77% 0 km/h 0 km/h 1018 hPa 0 mm/hr 0 mm
01:19 13.6°C 9.7°C 77% 0 km/h 0 km/h 1018 hPa 0 mm/hr 0 mm
01:14 13.7°C 9.6°C 76% 0 km/h 0 km/h 1018 hPa 0 mm/hr 0 mm
01:09 13.9°C 9.8°C 76% 0 km/h 0 km/h 1018 hPa 0 mm/hr 0 mm
01:04 14°C 9.9°C 76% 0 km/h 0 km/h 1018 hPa 0 mm/hr 0 mm
00:59 14.2°C 9.9°C 75% 0 km/h 0 km/h 1018 hPa 0 mm/hr 0 mm
00:54 14.3°C 10°C 75% 0 km/h 0 km/h 1018 hPa 0 mm/hr 0 mm
00:49 14.4°C 10.1°C 75% 0 km/h 0 km/h 1018 hPa 0 mm/hr 0 mm
00:44 14.5°C 10.2°C 75% 0 km/h 0 km/h 1018 hPa 0 mm/hr 0 mm
00:39 14.7°C 10.2°C 74% 0 km/h 0 km/h 1018 hPa 0 mm/hr 0 mm
00:34 14.8°C 10.2°C 74% 0 km/h 0 km/h 1018 hPa 0 mm/hr 0 mm
00:29 14.9°C 10.4°C 74% 0 km/h 0 km/h 1018 hPa 0 mm/hr 0 mm
00:24 15.1°C 10.6°C 74% 0 km/h 0 km/h 1018 hPa 0 mm/hr 0 mm
00:19 15.2°C 10.7°C 74% 0 km/h 0 km/h 1018 hPa 0 mm/hr 0 mm
00:14 15.3°C 10.5°C 73% 0 km/h 0 km/h 1018 hPa 0 mm/hr 0 mm
00:09 15.5°C 10.7°C 73% 0 km/h 0 km/h 1018 hPa 0 mm/hr 0 mm
00:04 15.6°C 10.9°C 73% 0 km/h 0 km/h 1018 hPa 0 mm/hr 0 mm